»·PEaware :: N149CD KSBA-KVNY

N149CD :: KSBA-KVNY

FLIGHT INFORMATION

Flight Status: Arrived
Operator: Privately registered:
United States
More flights under this callsign
Pilot: Nathan E. (30132)
Aircraft: CIRRUS SR-22
(SR22)
More flights by this aircraft type
Origin: KSBA Santa Barbara Mun
United States
Destination: KVNY Van Nuys
United States
More flights between these airports :: More routes between these airports
Route: KWANG CMA CMA072 GINNA
File this flight plan on PilotEdge
Remarks: TEC route SBAP2
Altitude:
(Current/Filed)
5,000ft
Speed:
(Current/Filed)
170kts
Departed: 19-Jan-21 11:14 AM
Arrived: 19-Jan-21 11:54 AM
Distance/Time
Traveled:
68nm/0:40
Distance/Time
To Go:
Arrived

Flight Plot

Page will automatically refresh every two minutes.


Map Options




Map Legend


Flown Route
Filed Route
Departure Airport
Arrival Airport
Navaid (VOR, NDB)
Fix

Horizontal Profiles

Position Reports

Time Latitude Longitude Heading Altitude Ground
Speed
19-Jan-21 10:53 34.432568 -119.835090 71 13ft 0kts
19-Jan-21 10:54 34.432568 -119.835090 71 13ft 0kts
19-Jan-21 10:55 34.432568 -119.835090 71 13ft 0kts
19-Jan-21 10:56 34.432568 -119.835090 71 13ft 0kts
19-Jan-21 10:57 34.432568 -119.835090 71 13ft 0kts
19-Jan-21 10:58 34.432568 -119.835090 71 13ft 0kts
19-Jan-21 10:59 34.432568 -119.835090 71 13ft 0kts
19-Jan-21 11:00 34.432568 -119.835090 71 13ft 0kts
19-Jan-21 11:01 34.432568 -119.835090 71 13ft 0kts
19-Jan-21 11:02 34.432568 -119.835090 71 13ft 0kts
19-Jan-21 11:03 34.432568 -119.835090 71 13ft 0kts
19-Jan-21 11:04 34.432568 -119.835090 71 13ft 0kts
19-Jan-21 11:05 34.432568 -119.835090 71 13ft 0kts
19-Jan-21 11:06 34.431778 -119.835349 178 13ft 9kts
19-Jan-21 11:08 34.429024 -119.834853 112 9ft 8kts
19-Jan-21 11:09 34.428792 -119.834691 260 9ft 0kts
19-Jan-21 11:10 34.428792 -119.834691 260 9ft 0kts
19-Jan-21 11:11 34.428792 -119.834692 260 10ft 0kts
19-Jan-21 11:12 34.428792 -119.834691 260 10ft 0kts
19-Jan-21 11:13 34.427872 -119.836137 268 10ft 37kts
19-Jan-21 11:14 34.426870 -119.870784 269 848ft 125kts
19-Jan-21 11:15 34.427455 -119.912091 269 2231ft 122kts
19-Jan-21 11:16 34.424571 -119.952702 221 3357ft 125kts
19-Jan-21 11:17 34.402522 -119.932106 105 4372ft 128kts
19-Jan-21 11:18 34.392329 -119.888915 104 5019ft 150kts
19-Jan-21 11:19 34.380440 -119.836241 104 4996ft 162kts
19-Jan-21 11:20 34.369061 -119.785376 104 4987ft 146kts
19-Jan-21 11:21 34.358153 -119.736523 104 5009ft 159kts
19-Jan-21 11:22 34.346214 -119.683284 104 4997ft 162kts
19-Jan-21 11:22 34.336351 -119.639350 104 4999ft 161kts
19-Jan-21 11:24 34.322553 -119.578010 104 5000ft 162kts
19-Jan-21 11:25 34.310624 -119.525105 104 5000ft 162kts
19-Jan-21 11:26 34.298686 -119.472278 104 4999ft 162kts
19-Jan-21 11:26 34.288711 -119.428220 104 4999ft 162kts
19-Jan-21 11:27 34.276735 -119.375432 104 4999ft 162kts
19-Jan-21 11:28 34.264737 -119.322639 104 5000ft 162kts
19-Jan-21 11:29 34.272764 -119.269275 75 5000ft 162kts
19-Jan-21 11:30 34.284047 -119.216487 74 5000ft 162kts
19-Jan-21 11:31 34.295562 -119.163534 74 4999ft 162kts
19-Jan-21 11:32 34.307074 -119.110628 74 4999ft 162kts
19-Jan-21 11:33 34.317813 -119.061220 73 5755ft 142kts
19-Jan-21 11:34 34.328390 -119.012433 74 6007ft 159kts
19-Jan-21 11:35 34.339848 -118.959411 74 6000ft 163kts
19-Jan-21 11:36 34.351377 -118.905994 74 6000ft 163kts
19-Jan-21 11:37 34.365981 -118.854013 66 6000ft 163kts
19-Jan-21 11:38 34.383312 -118.803020 66 5999ft 163kts
19-Jan-21 11:39 34.400614 -118.752035 66 5999ft 163kts
19-Jan-21 11:40 34.417822 -118.701244 66 5999ft 163kts
19-Jan-21 11:41 34.435012 -118.650420 66 5999ft 163kts
19-Jan-21 11:42 34.452285 -118.599272 66 6000ft 163kts
19-Jan-21 11:43 34.466335 -118.557591 66 5993ft 122kts
19-Jan-21 11:44 34.475795 -118.518736 114 5980ft 121kts
19-Jan-21 11:45 34.445546 -118.511934 177 5517ft 118kts
19-Jan-21 11:46 34.412948 -118.509496 172 4917ft 118kts
19-Jan-21 11:47 34.380102 -118.506552 174 4317ft 116kts
19-Jan-21 11:48 34.348395 -118.503510 175 3807ft 115kts
19-Jan-21 11:49 34.317465 -118.500596 174 3161ft 110kts
19-Jan-21 11:50 34.286772 -118.497670 174 2484ft 111kts
19-Jan-21 11:51 34.256362 -118.494790 174 1849ft 102kts
19-Jan-21 11:52 34.228887 -118.492176 174 1172ft 90kts
19-Jan-21 11:53 34.208058 -118.490205 174 804ft 37kts
19-Jan-21 11:54 34.206583 -118.491042 263 804ft 5kts
19-Jan-21 11:55 34.206298 -118.492524 178 804ft 0kts

Navigation Log

Ident Type
Flight plan parsing failed, navigation log unavailable